createdAt,value
2023-01-19T00:02:13.611Z,6.25
2023-01-19T00:04:45.363Z,6.00
2023-01-19T00:07:17.281Z,6.03
2023-01-19T00:09:48.938Z,7.95
2023-01-19T00:12:23.824Z,8.50
2023-01-19T00:14:55.514Z,6.47
2023-01-19T00:17:27.197Z,6.97
2023-01-19T00:19:58.939Z,6.40
2023-01-19T00:22:30.722Z,8.10
2023-01-19T00:25:04.284Z,7.43
2023-01-19T00:27:35.944Z,7.80
2023-01-19T00:30:10.338Z,7.10
2023-01-19T00:32:42.223Z,7.55
2023-01-19T00:35:14.016Z,8.55
2023-01-19T00:37:46.153Z,8.30
2023-01-19T00:40:18.260Z,8.02
2023-01-19T00:42:49.953Z,11.50
2023-01-19T00:45:24.075Z,7.55
2023-01-19T00:47:57.290Z,9.65
2023-01-19T00:50:32.791Z,7.85
2023-01-19T00:53:04.500Z,10.07
2023-01-19T00:55:36.191Z,7.88
2023-01-19T00:58:07.892Z,9.38
2023-01-19T01:00:39.980Z,10.10
2023-01-19T01:03:11.746Z,9.48
2023-01-19T01:05:46.418Z,8.38
2023-01-19T01:08:18.063Z,8.07
2023-01-19T01:10:50.978Z,9.68
2023-01-19T01:13:26.184Z,10.40
2023-01-19T01:15:59.130Z,7.70
2023-01-19T01:18:33.939Z,9.10
2023-01-19T01:21:06.810Z,8.20
2023-01-19T01:23:39.169Z,9.48
2023-01-19T01:26:10.807Z,8.32
2023-01-19T01:28:42.513Z,8.63
2023-01-19T01:31:14.410Z,8.13
2023-01-19T01:33:46.116Z,10.95
2023-01-19T01:36:20.930Z,10.90
2023-01-19T01:41:25.452Z,8.68
2023-01-19T01:43:58.890Z,11.73
2023-01-19T01:46:31.993Z,9.82
2023-01-19T01:49:13.342Z,8.90
2023-01-19T01:51:52.798Z,11.93
2023-01-19T01:54:32.472Z,9.43
2023-01-19T01:57:12.397Z,8.52
2023-01-19T01:59:49.658Z,9.35
2023-01-19T02:02:45.951Z,9.63
2023-01-19T02:05:17.487Z,9.77
2023-01-19T02:08:31.372Z,11.90
2023-01-19T02:11:22.471Z,13.30
2023-01-19T02:13:54.306Z,9.55
2023-01-19T02:16:26.359Z,10.77
2023-01-19T02:18:58.211Z,8.32
2023-01-19T02:21:39.083Z,9.65
2023-01-19T02:24:11.029Z,7.63
2023-01-19T02:26:46.010Z,11.23
2023-01-19T02:29:26.028Z,9.45
2023-01-19T02:31:59.826Z,10.20
2023-01-19T02:34:32.429Z,11.38
2023-01-19T02:37:10.055Z,9.93
2023-01-19T02:39:47.240Z,10.55
2023-01-19T02:42:25.426Z,11.07
2023-01-19T02:44:57.979Z,10.75
2023-01-19T02:47:38.762Z,10.57
2023-01-19T02:50:42.030Z,9.90
2023-01-19T02:53:45.757Z,11.95
2023-01-19T02:56:46.020Z,10.48
2023-01-19T02:59:37.216Z,14.85
2023-01-19T03:02:17.622Z,10.75
2023-01-19T03:05:21.858Z,15.00
2023-01-19T03:08:10.218Z,14.00
2023-01-19T03:10:53.546Z,16.00
2023-01-19T03:13:53.297Z,15.75
2023-01-19T03:16:40.958Z,14.05
2023-01-19T03:19:27.582Z,16.15
2023-01-19T03:22:03.731Z,17.20
2023-01-19T03:24:40.196Z,16.48
2023-01-19T03:27:23.191Z,14.18
2023-01-19T03:30:07.958Z,15.55
2023-01-19T03:32:48.500Z,14.00
2023-01-19T03:35:24.470Z,15.65
2023-01-19T03:38:03.849Z,15.32
2023-01-19T03:40:36.683Z,16.85
2023-01-19T03:43:09.686Z,15.60
2023-01-19T03:45:42.952Z,16.05
2023-01-19T03:48:17.294Z,16.30
2023-01-19T03:50:49.239Z,16.23
2023-01-19T03:53:22.781Z,16.30
2023-01-19T03:55:55.115Z,15.45
2023-01-19T03:58:26.888Z,16.83
2023-01-19T04:01:01.876Z,14.50
2023-01-19T04:03:33.630Z,14.48
2023-01-19T04:06:05.672Z,22.33
2023-01-19T04:08:37.351Z,19.00
2023-01-19T04:11:09.762Z,17.75
2023-01-19T04:13:41.489Z,16.60
2023-01-19T04:16:13.319Z,16.40
2023-01-19T04:18:45.052Z,20.70
2023-01-19T04:21:16.967Z,28.30
2023-01-19T04:23:49.971Z,34.22
2023-01-19T04:26:21.962Z,34.05
2023-01-19T04:28:56.127Z,24.83
2023-01-19T04:31:28.060Z,23.73
2023-01-19T04:33:59.811Z,21.83
2023-01-19T04:36:31.515Z,17.27
2023-01-19T04:39:03.255Z,11.60
2023-01-19T04:41:36.083Z,11.68
2023-01-19T04:44:07.840Z,12.25
2023-01-19T04:46:40.806Z,8.48
2023-01-19T04:49:12.555Z,11.00
2023-01-19T04:51:44.540Z,9.00
2023-01-19T04:54:16.214Z,11.82
2023-01-19T04:56:48.067Z,8.77
2023-01-19T04:59:20.478Z,10.88
2023-01-19T05:01:52.217Z,8.45
2023-01-19T05:04:25.658Z,8.25
2023-01-19T05:06:58.307Z,8.88
2023-01-19T05:09:29.944Z,10.27
2023-01-19T05:12:01.612Z,10.93
2023-01-19T05:14:33.386Z,10.68
2023-01-19T05:17:05.265Z,10.95
2023-01-19T05:19:36.932Z,9.25
2023-01-19T05:22:08.759Z,10.57
2023-01-19T05:24:40.530Z,11.88
2023-01-19T05:27:12.592Z,11.77
2023-01-19T05:29:44.274Z,10.95
2023-01-19T05:32:15.979Z,12.23
2023-01-19T05:34:47.615Z,10.85
2023-01-19T05:37:19.603Z,12.77
2023-01-19T05:39:51.436Z,11.27
2023-01-19T05:42:23.181Z,10.60
2023-01-19T05:44:54.809Z,9.30
2023-01-19T05:47:26.563Z,11.52
2023-01-19T05:49:58.451Z,11.73
2023-01-19T05:52:30.192Z,10.00
2023-01-19T05:55:01.883Z,10.45
2023-01-19T05:57:33.566Z,10.85
2023-01-19T06:00:05.841Z,9.00
2023-01-19T06:02:40.853Z,13.00
2023-01-19T06:05:12.638Z,10.32
2023-01-19T06:07:44.407Z,8.40
2023-01-19T06:10:16.626Z,10.35
2023-01-19T06:12:49.027Z,10.88
2023-01-19T06:15:20.843Z,9.25
2023-01-19T06:17:55.145Z,8.60
2023-01-19T06:20:26.820Z,10.18
2023-01-19T06:22:59.064Z,9.38
2023-01-19T06:25:30.937Z,9.13
2023-01-19T06:28:05.413Z,10.52
2023-01-19T06:30:37.193Z,12.10
2023-01-19T06:33:09.166Z,12.90
2023-01-19T06:35:43.702Z,9.95
2023-01-19T06:38:18.163Z,12.52
2023-01-19T06:41:02.730Z,12.50
2023-01-19T06:43:34.522Z,9.65
2023-01-19T06:46:06.263Z,12.23
2023-01-19T06:48:37.968Z,11.65
2023-01-19T06:51:10.186Z,11.57
2023-01-19T06:53:41.866Z,10.13
2023-01-19T06:56:13.751Z,11.20
2023-01-19T06:58:48.044Z,10.27
2023-01-19T07:01:19.869Z,10.90
2023-01-19T07:03:54.580Z,12.20
2023-01-19T07:06:26.232Z,11.23
2023-01-19T07:09:00.235Z,10.77
2023-01-19T07:11:32.112Z,10.18
2023-01-19T07:14:04.131Z,11.63
2023-01-19T07:16:35.816Z,12.05
2023-01-19T07:19:10.377Z,14.65
2023-01-19T07:21:42.035Z,9.65
2023-01-19T07:24:13.820Z,10.98
2023-01-19T07:26:45.457Z,12.65
2023-01-19T07:29:18.271Z,12.50
2023-01-19T07:31:50.253Z,11.10
2023-01-19T07:34:22.132Z,12.02
2023-01-19T07:36:56.915Z,11.95
2023-01-19T07:39:28.787Z,8.90
2023-01-19T07:42:00.580Z,10.07
2023-01-19T07:44:32.300Z,12.00
2023-01-19T07:47:07.484Z,10.98
2023-01-19T07:49:39.842Z,11.70
2023-01-19T07:52:11.549Z,14.85
2023-01-19T07:54:43.546Z,13.10
2023-01-19T07:57:15.170Z,11.70
2023-01-19T07:59:46.868Z,13.25
2023-01-19T08:02:18.650Z,15.25
2023-01-19T08:04:50.401Z,15.65
2023-01-19T08:07:22.037Z,9.75
2023-01-19T08:09:53.945Z,12.05
2023-01-19T08:12:25.597Z,10.88
2023-01-19T08:14:57.298Z,12.25
2023-01-19T08:17:28.914Z,15.68
2023-01-19T08:20:00.775Z,14.70
2023-01-19T08:22:32.502Z,11.23
2023-01-19T08:25:04.449Z,10.38
2023-01-19T08:27:36.151Z,11.90
2023-01-19T08:30:08.699Z,13.60
2023-01-19T08:32:40.410Z,11.23
2023-01-19T08:35:12.064Z,13.13
2023-01-19T08:37:43.726Z,16.08
2023-01-19T08:40:15.673Z,13.95
2023-01-19T08:42:47.362Z,11.75
2023-01-19T08:45:19.111Z,11.45
2023-01-19T08:47:50.814Z,11.05
2023-01-19T08:50:26.736Z,10.43
2023-01-19T08:53:00.361Z,10.32
2023-01-19T08:55:35.209Z,9.93
2023-01-19T08:58:08.808Z,10.63
2023-01-19T09:00:41.024Z,10.98
2023-01-19T09:03:13.834Z,9.52
2023-01-19T09:05:45.715Z,13.65
2023-01-19T09:08:17.513Z,11.52
2023-01-19T09:10:51.286Z,11.93
2023-01-19T09:13:23.172Z,9.47
2023-01-19T09:15:55.142Z,10.32
2023-01-19T09:18:26.879Z,8.90
2023-01-19T09:20:58.660Z,14.52
2023-01-19T09:23:30.670Z,12.35
2023-01-19T09:26:04.360Z,11.63
2023-01-19T09:28:38.151Z,11.30
2023-01-19T09:31:09.937Z,10.17
2023-01-19T09:33:41.672Z,13.05
2023-01-19T09:36:13.355Z,10.18
2023-01-19T09:38:45.031Z,11.73
2023-01-19T09:41:22.368Z,10.77
2023-01-19T09:43:59.322Z,10.75
2023-01-19T09:46:40.336Z,10.77
2023-01-19T09:49:31.273Z,9.85
2023-01-19T09:52:03.758Z,8.50
2023-01-19T09:54:46.464Z,8.68
2023-01-19T09:57:18.426Z,12.15
2023-01-19T09:59:51.466Z,9.82
2023-01-19T10:02:28.821Z,8.82
2023-01-19T10:05:05.478Z,12.65
2023-01-19T10:07:53.323Z,9.55
2023-01-19T10:10:30.889Z,7.90
2023-01-19T10:13:43.897Z,8.63
2023-01-19T10:16:59.934Z,8.15
2023-01-19T10:22:21.907Z,9.13
2023-01-19T10:24:57.119Z,8.98
2023-01-19T10:27:30.821Z,7.20
2023-01-19T10:30:04.113Z,8.23
2023-01-19T10:32:36.872Z,7.53
2023-01-19T10:35:21.922Z,8.88
2023-01-19T10:40:37.455Z,8.25
2023-01-19T10:43:33.998Z,11.05
2023-01-19T10:46:08.217Z,10.07
2023-01-19T10:48:42.029Z,8.50
2023-01-19T10:51:14.197Z,11.37
2023-01-19T10:54:03.494Z,12.13
2023-01-19T10:56:37.145Z,10.15
2023-01-19T10:59:36.248Z,9.50
2023-01-19T11:02:18.695Z,9.68
2023-01-19T11:04:53.131Z,8.63
2023-01-19T11:07:33.765Z,10.68
2023-01-19T11:10:24.052Z,9.05
2023-01-19T11:13:15.805Z,7.75
2023-01-19T11:16:07.015Z,9.63
2023-01-19T11:18:41.254Z,11.15
2023-01-19T11:21:15.086Z,10.77
2023-01-19T11:23:52.763Z,8.80
2023-01-19T11:26:44.303Z,9.80
2023-01-19T11:29:22.269Z,9.95
2023-01-19T11:31:55.230Z,10.98
2023-01-19T11:34:36.764Z,11.07
2023-01-19T11:37:20.232Z,10.32
2023-01-19T11:40:04.230Z,12.82
2023-01-19T11:42:37.238Z,13.43
2023-01-19T11:45:19.248Z,9.27
2023-01-19T11:47:52.568Z,10.55
2023-01-19T11:50:39.085Z,8.48
2023-01-19T11:53:16.885Z,9.60
2023-01-19T11:55:59.489Z,7.97
2023-01-19T11:58:33.394Z,18.83
2023-01-19T12:01:10.774Z,9.20
2023-01-19T12:03:49.080Z,14.48
2023-01-19T12:06:34.359Z,9.23
2023-01-19T12:09:15.198Z,9.23
2023-01-19T12:11:53.285Z,8.30
2023-01-19T12:14:47.605Z,7.93
2023-01-19T12:17:43.810Z,7.85
2023-01-19T12:20:46.517Z,7.30
2023-01-19T12:23:47.549Z,7.82
2023-01-19T12:26:36.960Z,7.45
2023-01-19T12:29:13.902Z,8.90
2023-01-19T12:31:45.699Z,7.63
2023-01-19T12:34:46.590Z,7.45
2023-01-19T12:37:39.633Z,10.00
2023-01-19T12:40:27.939Z,8.75
2023-01-19T12:43:05.659Z,8.40
2023-01-19T12:45:39.788Z,7.53
2023-01-19T12:48:25.295Z,7.13
2023-01-19T12:50:57.120Z,11.13
2023-01-19T12:53:30.555Z,9.02
2023-01-19T12:56:06.410Z,11.82
2023-01-19T12:58:38.214Z,9.95
2023-01-19T13:01:21.023Z,9.27
2023-01-19T13:04:30.851Z,11.85
2023-01-19T13:07:05.769Z,10.85
2023-01-19T13:09:39.306Z,15.20
2023-01-19T13:12:13.746Z,13.05
2023-01-19T13:14:45.550Z,12.02
2023-01-19T13:17:29.775Z,9.57
2023-01-19T13:20:27.393Z,9.80
2023-01-19T13:23:16.919Z,9.75
2023-01-19T13:26:03.484Z,13.82
2023-01-19T13:28:40.815Z,11.68
2023-01-19T13:31:13.602Z,11.75
2023-01-19T13:34:00.572Z,10.57
2023-01-19T13:36:36.491Z,9.82
2023-01-19T13:39:19.417Z,9.18
2023-01-19T13:41:54.980Z,11.77
2023-01-19T13:44:42.305Z,11.73
2023-01-19T13:47:21.748Z,12.35
2023-01-19T13:49:57.369Z,12.10
2023-01-19T13:52:29.924Z,10.93
2023-01-19T13:55:04.466Z,12.57
2023-01-19T14:00:38.525Z,10.60
2023-01-19T14:03:13.297Z,13.35
2023-01-19T14:08:18.484Z,12.20
2023-01-19T14:11:02.429Z,11.95
2023-01-19T14:13:40.333Z,10.00
2023-01-19T14:16:17.751Z,11.45
2023-01-19T14:19:04.186Z,9.50
2023-01-19T14:21:40.823Z,13.25
2023-01-19T14:24:19.971Z,11.35
2023-01-19T14:26:54.710Z,12.20
2023-01-19T14:29:47.376Z,10.85
2023-01-19T14:32:25.464Z,10.85
2023-01-19T14:35:04.118Z,12.85
2023-01-19T14:37:37.934Z,11.85
2023-01-19T14:40:12.953Z,11.48
2023-01-19T14:43:00.160Z,10.38
2023-01-19T14:45:41.323Z,11.30
2023-01-19T14:48:18.198Z,10.55
2023-01-19T14:51:02.885Z,10.95
2023-01-19T14:53:38.344Z,10.57
2023-01-19T14:56:10.546Z,10.73
2023-01-19T14:58:42.243Z,13.82
2023-01-19T15:01:13.935Z,13.05
2023-01-19T15:03:46.063Z,16.52
2023-01-19T15:06:20.466Z,10.15
2023-01-19T15:08:56.018Z,11.88
2023-01-19T15:11:33.942Z,12.07
2023-01-19T15:14:06.039Z,11.07
2023-01-19T15:16:37.800Z,11.13
2023-01-19T15:19:12.370Z,13.38
2023-01-19T15:21:46.376Z,12.40
2023-01-19T15:24:18.255Z,14.50
2023-01-19T15:26:49.963Z,14.13
2023-01-19T15:29:24.779Z,12.02
2023-01-19T15:34:27.971Z,12.05
2023-01-19T15:36:59.969Z,13.65
2023-01-19T15:39:32.357Z,13.60
2023-01-19T15:42:04.113Z,16.77
2023-01-19T15:44:38.418Z,10.20
2023-01-19T15:47:10.326Z,11.40
2023-01-19T15:49:42.025Z,12.68
2023-01-19T15:52:14.681Z,10.23
2023-01-19T15:54:47.544Z,10.73
2023-01-19T15:57:19.242Z,11.00
2023-01-19T15:59:51.465Z,13.55
2023-01-19T16:02:23.547Z,14.27
2023-01-19T16:04:55.267Z,10.82
2023-01-19T16:07:27.020Z,16.23
2023-01-19T16:09:58.726Z,12.98
2023-01-19T16:12:30.388Z,19.15
2023-01-19T16:15:02.056Z,13.57
2023-01-19T16:17:33.793Z,9.90
2023-01-19T16:20:06.559Z,10.80
2023-01-19T16:22:38.446Z,13.70
2023-01-19T16:25:11.240Z,14.13
2023-01-19T16:27:43.158Z,10.70
2023-01-19T16:30:16.401Z,15.00
2023-01-19T16:32:51.016Z,15.35
2023-01-19T16:35:22.714Z,14.93
2023-01-19T16:37:54.386Z,13.50
2023-01-19T16:40:29.174Z,15.65
2023-01-19T16:43:01.153Z,13.85
2023-01-19T16:45:32.880Z,10.93
2023-01-19T16:48:04.897Z,11.93
2023-01-19T16:50:36.636Z,15.43
2023-01-19T16:53:08.299Z,12.02
2023-01-19T16:55:43.478Z,13.55
2023-01-19T16:58:15.135Z,12.75
2023-01-19T17:00:46.953Z,18.08
2023-01-19T17:03:18.797Z,15.93
2023-01-19T17:05:51.107Z,13.65
2023-01-19T17:08:22.865Z,14.30
2023-01-19T17:10:55.711Z,14.63
2023-01-19T17:13:27.351Z,14.20
2023-01-19T17:16:03.864Z,13.45
2023-01-19T17:18:36.824Z,13.82
2023-01-19T17:21:12.921Z,14.00
2023-01-19T17:23:51.662Z,16.02
2023-01-19T17:26:31.359Z,11.68
2023-01-19T17:29:08.126Z,12.82
2023-01-19T17:31:39.996Z,12.85
2023-01-19T17:34:11.727Z,10.45
2023-01-19T17:36:43.630Z,13.23
2023-01-19T17:39:16.868Z,13.52
2023-01-19T17:41:50.286Z,13.63
2023-01-19T17:44:22.456Z,15.27
2023-01-19T17:46:54.102Z,12.57
2023-01-19T17:49:25.792Z,11.77
2023-01-19T17:51:57.500Z,13.77
2023-01-19T17:54:29.240Z,14.85
2023-01-19T17:57:01.017Z,12.18
2023-01-19T17:59:32.741Z,11.52
2023-01-19T18:02:04.442Z,14.10
2023-01-19T18:04:39.578Z,10.07
2023-01-19T18:07:11.327Z,12.13
2023-01-19T18:09:43.005Z,12.20
2023-01-19T18:12:15.974Z,11.38
2023-01-19T18:14:47.590Z,9.07
2023-01-19T18:17:19.307Z,8.50
2023-01-19T18:19:51.035Z,8.55
2023-01-19T18:22:25.579Z,8.93
2023-01-19T18:24:57.293Z,6.80
2023-01-19T18:27:29.486Z,9.13
2023-01-19T18:30:01.129Z,8.70
2023-01-19T18:32:34.636Z,7.70
2023-01-19T18:35:06.980Z,9.93
2023-01-19T18:37:38.660Z,7.88
2023-01-19T18:40:11.627Z,6.88
2023-01-19T18:42:45.670Z,9.93
2023-01-19T18:45:17.346Z,10.63
2023-01-19T18:47:49.079Z,8.95
2023-01-19T18:50:20.721Z,10.02
2023-01-19T18:52:52.843Z,8.32
2023-01-19T18:55:24.582Z,7.88
2023-01-19T18:57:56.334Z,8.23
2023-01-19T19:00:27.995Z,8.95
2023-01-19T19:03:00.108Z,8.63
2023-01-19T19:05:31.898Z,18.05
2023-01-19T19:08:04.787Z,10.10
2023-01-19T19:10:36.601Z,8.48
2023-01-19T19:13:09.203Z,8.52
2023-01-19T19:15:40.959Z,9.85
2023-01-19T19:18:14.033Z,10.15
2023-01-19T19:20:45.893Z,8.23
2023-01-19T19:23:17.616Z,8.15
2023-01-19T19:25:49.328Z,8.55
2023-01-19T19:28:21.026Z,8.70
2023-01-19T19:31:22.161Z,9.63
2023-01-19T19:33:55.944Z,11.93
2023-01-19T19:36:31.695Z,11.27
2023-01-19T19:39:03.696Z,12.65
2023-01-19T19:41:38.262Z,12.20
2023-01-19T19:44:12.959Z,10.45
2023-01-19T19:46:44.682Z,11.02
2023-01-19T19:49:21.331Z,12.45
2023-01-19T19:51:53.216Z,13.35
2023-01-19T19:54:24.923Z,11.90
2023-01-19T19:57:05.557Z,13.13
2023-01-19T19:59:38.537Z,12.82
2023-01-19T20:02:19.072Z,14.70
2023-01-19T20:04:55.953Z,11.55
2023-01-19T20:10:05.294Z,13.73
2023-01-19T20:12:38.793Z,15.52
2023-01-19T20:15:13.898Z,14.45
2023-01-19T20:17:45.733Z,13.35
2023-01-19T20:20:17.664Z,12.27
2023-01-19T20:22:52.889Z,16.27
2023-01-19T20:25:27.555Z,12.57
2023-01-19T20:28:06.894Z,12.55
2023-01-19T20:30:40.859Z,16.58
2023-01-19T20:33:12.667Z,14.13
2023-01-19T20:35:44.830Z,12.63
2023-01-19T20:38:16.494Z,18.83
2023-01-19T20:40:59.733Z,14.90
2023-01-19T20:43:31.533Z,15.25
2023-01-19T20:46:03.915Z,16.30
2023-01-19T20:48:35.902Z,15.02
2023-01-19T20:51:10.823Z,16.52
2023-01-19T20:53:42.540Z,16.73
2023-01-19T20:56:16.724Z,18.25
2023-01-19T20:58:48.477Z,15.30
2023-01-19T21:01:23.274Z,15.45
2023-01-19T21:06:26.800Z,13.73
2023-01-19T21:08:58.488Z,16.45
2023-01-19T21:11:30.527Z,15.52
2023-01-19T21:14:02.725Z,17.88
2023-01-19T21:16:35.243Z,18.00
2023-01-19T21:19:07.075Z,16.52
2023-01-19T21:21:38.756Z,16.38
2023-01-19T21:24:11.320Z,17.83
2023-01-19T21:26:43.026Z,18.60
2023-01-19T21:29:14.940Z,17.63
2023-01-19T21:31:46.794Z,14.60
2023-01-19T21:34:18.662Z,17.00
2023-01-19T21:36:50.396Z,16.42
2023-01-19T21:39:22.145Z,17.33
2023-01-19T21:41:55.281Z,14.95
2023-01-19T21:44:29.922Z,17.38
2023-01-19T21:47:01.588Z,20.05
2023-01-19T21:49:33.280Z,15.70
2023-01-19T21:52:05.346Z,21.10
2023-01-19T21:54:37.123Z,16.95
2023-01-19T21:57:09.038Z,16.77
2023-01-19T21:59:40.673Z,17.52
2023-01-19T22:02:13.174Z,19.05
2023-01-19T22:04:45.007Z,18.55
2023-01-19T22:07:16.705Z,16.48
2023-01-19T22:09:48.399Z,17.75
2023-01-19T22:12:20.091Z,19.98
2023-01-19T22:14:52.541Z,17.48
2023-01-19T22:17:24.264Z,14.85
2023-01-19T22:19:55.909Z,18.60
2023-01-19T22:22:27.875Z,19.38
2023-01-19T22:25:15.179Z,14.10
2023-01-19T22:27:47.098Z,13.75
2023-01-19T22:30:19.332Z,18.13
2023-01-19T22:32:51.096Z,16.52
2023-01-19T22:35:22.827Z,14.57
2023-01-19T22:37:57.409Z,17.55
2023-01-19T22:40:29.078Z,18.25
2023-01-19T22:43:00.761Z,16.27
2023-01-19T22:45:32.502Z,18.20
2023-01-19T22:48:04.295Z,18.42
2023-01-19T22:50:35.926Z,18.40
2023-01-19T22:53:08.671Z,16.80
2023-01-19T22:55:40.662Z,19.08
2023-01-19T22:58:15.130Z,19.83
2023-01-19T23:00:46.865Z,18.48
2023-01-19T23:03:18.628Z,18.55
2023-01-19T23:05:50.350Z,17.48
2023-01-19T23:08:22.075Z,17.45
2023-01-19T23:10:53.956Z,18.75
2023-01-19T23:13:25.633Z,18.20
2023-01-19T23:15:58.012Z,16.52
2023-01-19T23:18:30.622Z,17.05
2023-01-19T23:21:10.807Z,16.05
2023-01-19T23:23:43.210Z,16.10
2023-01-19T23:26:18.351Z,19.33
2023-01-19T23:28:55.624Z,16.77
2023-01-19T23:31:33.288Z,18.35
2023-01-19T23:34:07.243Z,15.68
2023-01-19T23:36:40.856Z,19.00
2023-01-19T23:39:18.755Z,19.00
2023-01-19T23:41:50.431Z,20.52
2023-01-19T23:44:22.167Z,20.27
2023-01-19T23:46:53.811Z,22.00
2023-01-19T23:49:25.687Z,19.05
2023-01-19T23:51:57.338Z,21.23
2023-01-19T23:54:28.997Z,22.40
2023-01-19T23:57:00.632Z,21.95
2023-01-19T23:59:32.348Z,23.35
